Time;durP1;ratioP1;P1;durP2;ratioP2;P2;SDS_P1;SDS_P2;PMS_P1;PMS_P2;Temp;Humidity;BMP_temperature;BMP_pressure;BME280_temperature;BME280_humidity;BME280_pressure;Samples;Min_cycle;Max_cycle;Signal;HPM_P1;HPM_P2
2021/05/12 00:00:25;;;;;;;11.43;4.55;;;;;;;11.87;86.20;99734.81;5034920;28;20350;-73
2021/05/12 00:02:53;;;;;;;9.15;4.55;;;;;;;11.82;86.08;99738.66;5034708;28;20055;-74
2021/05/12 00:05:22;;;;;;;9.45;5.13;;;;;;;11.87;86.31;99743.69;5034767;28;20049;-73
2021/05/12 00:07:49;;;;;;;10.98;5.47;;;;;;;11.91;86.55;99749.66;5034826;28;20050;-73
2021/05/12 00:10:16;;;;;;;9.05;5.68;;;;;;;11.88;87.00;99749.91;5034499;28;20419;-74
2021/05/12 00:12:44;;;;;;;12.57;5.00;;;;;;;11.86;88.04;99752.66;5034370;28;20485;-73
2021/05/12 00:15:16;;;;;;;7.35;4.57;;;;;;;11.85;86.90;99750.09;5033079;28;20514;-73
2021/05/12 00:17:45;;;;;;;8.25;5.20;;;;;;;11.85;88.13;99747.44;5039717;28;20061;-73
2021/05/12 00:20:14;;;;;;;12.35;5.38;;;;;;;11.77;88.56;99743.50;5054232;28;20080;-73
2021/05/12 00:22:49;;;;;;;7.05;4.43;;;;;;;11.85;88.59;99758.13;5054876;28;20052;-75
2021/05/12 00:25:17;;;;;;;9.98;5.57;;;;;;;11.81;87.21;99753.00;5058313;28;20377;-75
2021/05/12 00:27:44;;;;;;;10.50;5.10;;;;;;;11.82;87.06;99761.88;5058185;28;20061;-75
2021/05/12 00:30:14;;;;;;;10.50;5.38;;;;;;;11.81;87.42;99758.34;5057130;28;20122;-74
2021/05/12 00:32:41;;;;;;;10.85;5.35;;;;;;;11.79;88.55;99765.66;5058131;28;20057;-76
2021/05/12 00:35:10;;;;;;;10.38;5.53;;;;;;;11.80;87.45;99759.34;5056692;28;20053;-74
2021/05/12 00:37:37;;;;;;;10.88;6.10;;;;;;;11.80;87.25;99761.13;5057559;28;20048;-74
2021/05/12 00:40:05;;;;;;;7.60;5.57;;;;;;;11.73;88.03;99762.56;5057618;28;20389;-72
2021/05/12 00:42:34;;;;;;;12.15;6.20;;;;;;;11.69;87.79;99756.56;5057778;28;20064;-73
2021/05/12 00:45:03;;;;;;;12.43;6.55;;;;;;;11.65;87.10;99752.41;5057593;28;20049;-72
2021/05/12 00:47:31;;;;;;;14.23;7.30;;;;;;;11.71;88.08;99765.31;5057671;28;20049;-75
2021/05/12 00:49:59;;;;;;;10.65;7.82;;;;;;;11.73;87.06;99757.19;5057604;28;20057;-74
2021/05/12 00:52:27;;;;;;;14.68;8.55;;;;;;;11.75;86.88;99760.59;5057766;28;20103;-72
2021/05/12 00:54:53;;;;;;;15.43;8.93;;;;;;;11.74;87.42;99764.25;5057455;28;20053;-74
2021/05/12 00:57:21;;;;;;;18.55;9.32;;;;;;;11.74;87.88;99759.78;5057399;28;20357;-74
2021/05/12 00:59:51;;;;;;;21.33;9.60;;;;;;;11.72;88.22;99761.69;5056470;28;20044;-71
2021/05/12 01:02:18;;;;;;;15.85;9.88;;;;;;;11.70;87.83;99770.81;5058333;28;20049;-73
2021/05/12 01:04:45;;;;;;;18.02;10.73;;;;;;;11.71;87.82;99753.78;5061124;28;20110;-71
2021/05/12 01:07:12;;;;;;;17.70;10.73;;;;;;;11.68;87.38;99757.53;5061339;28;20062;-69
2021/05/12 01:09:38;;;;;;;19.40;12.15;;;;;;;11.63;87.64;99757.88;5060106;28;20059;-70
2021/05/12 01:12:05;;;;;;;19.05;12.15;;;;;;;11.62;88.50;99756.19;5057541;28;20106;-73
2021/05/12 01:14:32;;;;;;;18.05;12.45;;;;;;;11.62;88.49;99753.50;5057295;28;20095;-74
2021/05/12 01:16:59;;;;;;;24.25;12.90;;;;;;;11.67;88.37;99761.19;5057030;28;20061;-71
2021/05/12 01:19:27;;;;;;;24.92;12.07;;;;;;;11.58;86.73;99753.81;5037354;28;20050;-74
2021/05/12 01:21:55;;;;;;;18.17;11.20;;;;;;;11.65;87.11;99760.41;5037694;28;20068;-71
2021/05/12 01:24:22;;;;;;;16.38;11.93;;;;;;;11.64;88.15;99756.03;5037762;28;20096;-71
2021/05/12 01:26:48;;;;;;;21.88;13.13;;;;;;;11.65;89.32;99761.28;5035993;28;20057;-74
2021/05/12 01:29:15;;;;;;;19.60;11.70;;;;;;;11.62;87.59;99755.31;5037041;28;20418;-74
2021/05/12 01:31:45;;;;;;;17.73;10.70;;;;;;;11.64;86.49;99756.91;5037120;28;20049;-74
2021/05/12 01:34:17;;;;;;;20.73;11.68;;;;;;;11.62;87.84;99755.31;5036615;28;20527;-73
2021/05/12 01:36:46;;;;;;;22.52;12.02;;;;;;;11.51;87.36;99753.41;5036561;28;20053;-74
2021/05/12 01:39:15;;;;;;;22.23;11.80;;;;;;;11.60;87.66;99754.56;5035710;28;20053;-73
2021/05/12 01:41:43;;;;;;;17.42;12.20;;;;;;;11.58;87.19;99748.47;5036736;28;20053;-76
2021/05/12 01:44:10;;;;;;;17.92;11.65;;;;;;;11.63;86.96;99757.00;5036711;28;20061;-75
2021/05/12 01:46:44;;;;;;;17.75;11.50;;;;;;;11.60;85.78;99752.72;5036962;28;20053;-76
2021/05/12 01:49:10;;;;;;;19.75;11.32;;;;;;;11.55;86.55;99752.22;5036936;28;20107;-71
2021/05/12 01:51:39;;;;;;;22.38;11.65;;;;;;;11.52;85.54;99755.97;5036785;28;20443;-76
2021/05/12 01:54:08;;;;;;;23.95;12.60;;;;;;;11.54;85.44;99755.84;5035584;28;20049;-74
2021/05/12 01:56:43;;;;;;;21.67;13.35;;;;;;;11.53;86.09;99763.03;5036382;28;20130;-72
2021/05/12 01:59:10;;;;;;;24.20;12.38;;;;;;;11.52;85.86;99755.13;5035248;28;20049;-73
2021/05/12 02:01:38;;;;;;;20.67;12.13;;;;;;;11.42;85.91;99752.25;5036408;28;20057;-73
2021/05/12 02:04:06;;;;;;;22.58;12.98;;;;;;;11.46;85.78;99761.75;5036376;28;20119;-73
2021/05/12 02:06:33;;;;;;;19.50;12.40;;;;;;;11.47;86.12;99758.13;5036461;28;20124;-73
2021/05/12 02:09:01;;;;;;;20.20;11.88;;;;;;;11.49;86.86;99764.19;5036208;28;20103;-71
2021/05/12 02:11:28;;;;;;;18.05;12.23;;;;;;;11.43;86.91;99753.94;5036618;28;20064;-75
2021/05/12 02:13:55;;;;;;;20.08;13.02;;;;;;;11.49;87.05;99755.34;5035325;28;20057;-76
2021/05/12 02:16:22;;;;;;;17.40;12.18;;;;;;;11.50;86.88;99752.53;5035893;28;20372;-77
2021/05/12 02:18:48;;;;;;;23.63;12.95;;;;;;;11.46;87.74;99755.56;5050341;28;20052;-72
2021/05/12 02:21:15;;;;;;;20.40;12.13;;;;;;;11.49;87.69;99755.34;5055941;28;20126;-74
2021/05/12 02:23:42;;;;;;;21.85;12.98;;;;;;;11.42;87.27;99746.91;5055831;28;20096;-72
2021/05/12 02:26:08;;;;;;;19.35;13.23;;;;;;;11.44;87.80;99749.47;5055883;28;20504;-72
2021/05/12 02:28:35;;;;;;;23.48;13.73;;;;;;;11.45;88.23;99749.38;5055921;28;20061;-75
2021/05/12 02:31:03;;;;;;;25.38;12.95;;;;;;;11.41;88.10;99739.84;5054970;28;20056;-73
2021/05/12 02:33:29;;;;;;;19.83;12.88;;;;;;;11.43;88.72;99751.28;5038240;28;20049;-72
2021/05/12 02:35:56;;;;;;;16.33;11.95;;;;;;;11.44;87.82;99752.97;5055677;28;20068;-72
2021/05/12 02:38:23;;;;;;;21.77;12.50;;;;;;;11.49;88.23;99753.50;5054188;28;20076;-75
2021/05/12 02:40:50;;;;;;;18.58;11.35;;;;;;;11.41;88.31;99751.41;5054399;28;20088;-75
2021/05/12 02:43:17;;;;;;;19.27;10.85;;;;;;;11.45;88.59;99752.03;5055973;28;20049;-74
2021/05/12 02:45:44;;;;;;;18.52;11.82;;;;;;;11.42;87.88;99746.91;5055768;28;20453;-73
2021/05/12 02:48:10;;;;;;;17.92;11.75;;;;;;;11.41;88.50;99740.72;5055679;28;20052;-74
2021/05/12 02:50:40;;;;;;;23.92;11.25;;;;;;;11.44;88.23;99741.44;5055237;28;20048;-74
2021/05/12 02:53:08;;;;;;;17.77;12.17;;;;;;;11.37;88.86;99747.22;5054608;28;20049;-71
2021/05/12 02:55:36;;;;;;;18.77;11.02;;;;;;;11.33;89.27;99750.25;5055235;28;20301;-73
2021/05/12 02:58:06;;;;;;;15.48;10.77;;;;;;;11.34;88.77;99742.09;5055521;28;20049;-74
2021/05/12 03:00:34;;;;;;;19.05;11.02;;;;;;;11.33;88.78;99740.38;5055284;28;20060;-72
2021/05/12 03:03:01;;;;;;;19.02;10.88;;;;;;;11.31;88.14;99745.00;5054131;28;20049;-74
2021/05/12 03:05:30;;;;;;;20.42;10.43;;;;;;;11.32;88.80;99740.50;5055382;28;20052;-71
2021/05/12 03:07:57;;;;;;;18.58;10.27;;;;;;;11.32;88.43;99738.69;5055354;28;20057;-73
2021/05/12 03:10:24;;;;;;;16.48;9.77;;;;;;;11.31;89.11;99741.44;5037773;28;20052;-76
2021/05/12 03:12:53;;;;;;;16.63;9.98;;;;;;;11.25;89.09;99732.94;5054130;28;20396;-76
2021/05/12 03:15:23;;;;;;;17.95;9.77;;;;;;;11.35;88.46;99742.97;5054736;28;20049;-71
2021/05/12 03:17:53;;;;;;;17.95;9.13;;;;;;;11.29;88.97;99738.91;5048109;28;20045;-74
2021/05/12 03:20:20;;;;;;;14.13;7.60;;;;;;;11.23;88.27;99744.69;5051514;28;20052;-72
2021/05/12 03:22:48;;;;;;;12.82;7.55;;;;;;;11.17;88.48;99745.13;5054740;28;20099;-75
2021/05/12 03:25:16;;;;;;;10.70;6.95;;;;;;;11.13;88.31;99737.31;5052342;28;20338;-74
2021/05/12 03:27:44;;;;;;;9.55;6.38;;;;;;;11.09;88.95;99737.63;5054246;28;20059;-74
2021/05/12 03:30:14;;;;;;;10.45;6.20;;;;;;;11.02;88.39;99753.25;5053751;28;20049;-73
2021/05/12 03:32:40;;;;;;;12.73;5.67;;;;;;;10.92;88.59;99736.13;5053489;28;20060;-71
2021/05/12 03:35:08;;;;;;;10.05;5.97;;;;;;;10.98;89.53;99752.59;5055927;28;20318;-73
2021/05/12 03:37:35;;;;;;;12.35;5.68;;;;;;;11.00;88.73;99755.16;5056745;28;20052;-71
2021/05/12 03:40:03;;;;;;;11.55;5.40;;;;;;;11.00;88.18;99750.66;5055267;28;20107;-73
2021/05/12 03:42:30;;;;;;;12.15;5.40;;;;;;;10.86;88.44;99740.09;5054430;28;20053;-76
2021/05/12 03:44:57;;;;;;;11.07;5.38;;;;;;;11.00;87.93;99750.66;5034567;28;20057;-70
2021/05/12 03:47:23;;;;;;;14.25;4.88;;;;;;;10.98;87.27;99744.59;5034862;28;20057;-73
2021/05/12 03:49:50;;;;;;;8.32;4.60;;;;;;;10.96;88.10;99757.19;5035358;28;20331;-75
2021/05/12 03:52:17;;;;;;;6.57;4.22;;;;;;;10.91;88.45;99756.66;5046929;28;20082;-73
2021/05/12 03:54:43;;;;;;;11.80;4.90;;;;;;;10.89;88.03;99757.72;5054396;28;20056;-73
2021/05/12 03:57:10;;;;;;;9.77;4.75;;;;;;;10.88;87.82;99751.53;5054480;28;20111;-75
2021/05/12 03:59:37;;;;;;;11.30;5.05;;;;;;;10.86;87.74;99753.44;5057793;28;20061;-74
2021/05/12 04:02:03;;;;;;;11.82;4.60;;;;;;;10.77;88.09;99759.41;5058675;28;20122;-75
2021/05/12 04:04:30;;;;;;;10.68;4.95;;;;;;;10.75;88.07;99758.66;5041063;28;20053;-72
2021/05/12 04:06:57;;;;;;;10.75;5.07;;;;;;;10.72;88.24;99755.25;5057340;28;20322;-70
2021/05/12 04:09:24;;;;;;;9.77;4.65;;;;;;;10.69;87.44;99767.94;5057979;28;20434;-70
2021/05/12 04:11:50;;;;;;;10.32;5.25;;;;;;;10.64;88.41;99757.59;5058017;28;20128;-70
2021/05/12 04:14:17;;;;;;;11.40;4.53;;;;;;;10.67;87.98;99770.72;5057250;28;20057;-71
2021/05/12 04:16:45;;;;;;;9.40;4.75;;;;;;;10.57;88.60;99758.97;5056711;28;20053;-75
2021/05/12 04:19:12;;;;;;;11.15;4.82;;;;;;;10.54;88.54;99764.50;5039956;28;20057;-72
2021/05/12 04:21:39;;;;;;;16.13;5.53;;;;;;;10.60;89.77;99774.75;5038404;28;20053;-72
2021/05/12 04:24:06;;;;;;;9.75;4.60;;;;;;;10.53;88.69;99768.13;5038096;28;20206;-72
2021/05/12 04:26:33;;;;;;;10.80;4.35;;;;;;;10.49;88.30;99767.47;5035552;28;20123;-72
2021/05/12 04:28:59;;;;;;;8.20;4.30;;;;;;;10.38;87.70;99748.63;5036652;28;20049;-71
2021/05/12 04:31:26;;;;;;;13.40;4.43;;;;;;;10.42;87.98;99774.16;5036672;28;20053;-71
2021/05/12 04:33:53;;;;;;;14.07;4.63;;;;;;;10.48;87.62;99780.91;5036502;28;20584;-72
2021/05/12 04:36:20;;;;;;;11.20;4.28;;;;;;;10.38;87.87;99781.50;5035683;28;20104;-71
2021/05/12 04:38:46;;;;;;;11.73;4.28;;;;;;;10.44;87.38;99783.81;5036899;28;20045;-72
2021/05/12 04:41:13;;;;;;;12.35;3.88;;;;;;;10.41;87.33;99785.78;5035943;28;20057;-72
2021/05/12 04:43:39;;;;;;;9.68;4.38;;;;;;;10.44;87.35;99782.94;5037994;28;20049;-71
2021/05/12 04:46:06;;;;;;;8.50;4.00;;;;;;;10.46;87.10;99784.53;5037846;28;20045;-72
2021/05/12 04:48:33;;;;;;;11.50;4.60;;;;;;;10.46;87.24;99789.00;5036978;28;20092;-71
2021/05/12 04:50:59;;;;;;;14.43;4.00;;;;;;;10.27;86.75;99746.69;5037822;28;20096;-72
2021/05/12 04:53:26;;;;;;;9.23;4.35;;;;;;;10.49;86.70;99785.28;5038156;28;20057;-71
2021/05/12 04:55:53;;;;;;;8.30;4.05;;;;;;;10.42;87.27;99791.03;5036467;28;20431;-71
2021/05/12 04:58:20;;;;;;;7.82;3.70;;;;;;;10.41;86.41;99788.47;5037920;28;20107;-72
2021/05/12 05:00:48;;;;;;;6.88;3.38;;;;;;;10.42;86.43;99806.16;5037564;28;20057;-71
2021/05/12 05:03:15;;;;;;;8.18;3.80;;;;;;;10.45;85.84;99796.19;5037524;28;20045;-71
2021/05/12 05:05:42;;;;;;;9.38;4.43;;;;;;;10.42;85.66;99799.03;5037136;28;20386;-71
2021/05/12 05:08:10;;;;;;;15.27;5.00;;;;;;;10.45;85.63;99804.19;5037453;28;20431;-71
2021/05/12 05:10:37;;;;;;;12.48;4.00;;;;;;;10.43;85.19;99799.91;5035968;28;20111;-72
2021/05/12 05:13:04;;;;;;;7.30;4.97;;;;;;;10.43;85.49;99800.78;5035923;28;20435;-72
2021/05/12 05:15:32;;;;;;;7.70;4.07;;;;;;;10.38;84.89;99801.97;5036263;28;20057;-72
2021/05/12 05:17:58;;;;;;;10.05;3.95;;;;;;;10.35;84.85;99807.53;5044472;28;20111;-72
2021/05/12 05:20:28;;;;;;;9.85;4.13;;;;;;;10.28;85.04;99810.59;5056788;28;20106;-72
2021/05/12 05:22:57;;;;;;;11.88;4.18;;;;;;;10.19;85.00;99797.88;5057142;28;20049;-72
2021/05/12 05:25:23;;;;;;;17.95;4.30;;;;;;;10.28;85.28;99817.72;5057263;28;20430;-72
2021/05/12 05:27:50;;;;;;;7.80;3.85;;;;;;;10.29;85.59;99819.44;5057138;28;20053;-72
2021/05/12 05:30:17;;;;;;;14.90;4.05;;;;;;;10.25;85.21;99812.63;5056996;28;20059;-72
2021/05/12 05:32:43;;;;;;;14.05;4.38;;;;;;;10.28;85.55;99826.59;5056843;28;20064;-72
2021/05/12 05:35:10;;;;;;;14.50;4.50;;;;;;;10.24;85.42;99835.75;5056637;28;20103;-72
2021/05/12 05:37:37;;;;;;;8.75;5.13;;;;;;;10.28;85.37;99828.41;5055288;28;20095;-72
2021/05/12 05:40:04;;;;;;;10.15;4.50;;;;;;;10.24;85.18;99822.41;5056573;28;20393;-71
2021/05/12 05:42:31;;;;;;;9.98;4.88;;;;;;;10.26;84.83;99825.84;5055719;28;20052;-74
2021/05/12 05:44:58;;;;;;;11.57;4.25;;;;;;;10.29;84.84;99828.31;5056523;28;20129;-75
2021/05/12 05:47:26;;;;;;;10.43;5.15;;;;;;;10.28;85.04;99829.28;5056507;28;20049;-74
2021/05/12 05:49:53;;;;;;;10.18;4.63;;;;;;;10.41;83.92;99826.66;5056233;28;20061;-74
2021/05/12 05:52:20;;;;;;;11.35;4.80;;;;;;;10.33;83.33;99815.63;5056184;28;20088;-74
2021/05/12 05:54:48;;;;;;;10.70;5.22;;;;;;;10.38;84.14;99813.53;5056571;28;20115;-70
2021/05/12 05:57:15;;;;;;;6.43;4.32;;;;;;;10.55;84.15;99830.25;5056410;28;20418;-70
2021/05/12 05:59:42;;;;;;;9.30;4.32;;;;;;;10.58;83.26;99820.22;5057147;28;20059;-70
2021/05/12 06:02:09;;;;;;;10.98;4.93;;;;;;;10.69;83.03;99830.19;5059390;28;20118;-70
2021/05/12 06:04:36;;;;;;;9.55;4.93;;;;;;;10.71;82.74;99822.94;5058233;28;20335;-70
2021/05/12 06:07:03;;;;;;;10.85;4.80;;;;;;;10.69;82.53;99827.50;5056212;28;20045;-71
2021/05/12 06:09:29;;;;;;;8.18;4.30;;;;;;;10.72;81.94;99826.44;5056124;28;20053;-70
2021/05/12 06:11:56;;;;;;;16.58;5.10;;;;;;;10.75;82.99;99826.25;5056009;28;20126;-70
2021/05/12 06:14:23;;;;;;;13.70;4.78;;;;;;;10.78;82.38;99831.38;5056101;28;20061;-70
2021/05/12 06:16:51;;;;;;;10.80;4.45;;;;;;;10.87;82.39;99829.91;5055530;28;20741;-71
2021/05/12 06:19:18;;;;;;;10.05;4.75;;;;;;;10.83;82.25;99823.91;5035847;28;20057;-70
2021/05/12 06:21:45;;;;;;;10.15;5.18;;;;;;;10.79;82.10;99826.91;5035730;28;20046;-71
2021/05/12 06:24:12;;;;;;;13.23;5.80;;;;;;;10.89;81.51;99827.97;5034731;28;20053;-71
2021/05/12 06:26:39;;;;;;;10.32;4.70;;;;;;;10.96;81.39;99823.09;5018116;28;20052;-74
2021/05/12 06:29:07;;;;;;;12.93;5.55;;;;;;;10.86;82.07;99823.69;5018370;28;20442;-70
2021/05/12 06:31:34;;;;;;;14.70;5.65;;;;;;;10.96;82.05;99823.94;5035443;28;20053;-71
2021/05/12 06:34:02;;;;;;;11.52;4.93;;;;;;;10.97;81.34;99822.13;5035395;28;20431;-73
2021/05/12 06:36:29;;;;;;;12.65;6.30;;;;;;;11.00;80.97;99820.09;5035483;28;20060;-70
2021/05/12 06:39:05;;;;;;;9.02;5.30;;;;;;;11.10;80.84;99819.47;5035600;28;20052;-71
2021/05/12 06:41:33;;;;;;;12.25;5.88;;;;;;;11.08;80.61;99816.91;5035278;28;20050;-71
2021/05/12 06:44:00;;;;;;;16.55;5.95;;;;;;;11.23;80.80;99830.16;5035407;28;20060;-71
2021/05/12 06:46:27;;;;;;;15.70;5.18;;;;;;;11.21;79.74;99814.25;5035259;28;20053;-71
2021/05/12 06:48:54;;;;;;;11.77;5.20;;;;;;;11.27;80.52;99829.84;5034128;28;20080;-70
2021/05/12 06:51:20;;;;;;;11.07;5.45;;;;;;;11.26;79.82;99824.59;5035509;28;20103;-71
2021/05/12 06:53:48;;;;;;;15.68;5.03;;;;;;;11.35;79.39;99834.66;5035325;28;20456;-70
2021/05/12 06:56:15;;;;;;;14.18;4.80;;;;;;;11.42;79.97;99835.09;5034072;28;20107;-71
2021/05/12 06:58:42;;;;;;;13.55;5.35;;;;;;;11.46;78.51;99833.91;5034170;28;20049;-69
2021/05/12 07:01:10;;;;;;;13.10;5.53;;;;;;;11.52;78.25;99840.63;5035340;28;20133;-71
2021/05/12 07:03:36;;;;;;;10.07;4.85;;;;;;;11.51;78.38;99829.06;5035063;28;20103;-71
2021/05/12 07:06:03;;;;;;;10.35;5.03;;;;;;;11.61;79.03;99839.13;5035065;28;20461;-70
2021/05/12 07:08:33;;;;;;;8.63;5.03;;;;;;;11.68;78.21;99837.75;5017614;28;20056;-69
2021/05/12 07:11:00;;;;;;;12.38;5.22;;;;;;;11.70;78.52;99838.47;5034055;28;20087;-69
2021/05/12 07:13:27;;;;;;;12.80;5.15;;;;;;;11.75;77.28;99831.00;5034568;28;20053;-68
2021/05/12 07:15:53;;;;;;;15.75;5.65;;;;;;;11.78;77.62;99837.94;5033611;28;20096;-68
2021/05/12 07:18:20;;;;;;;11.18;5.50;;;;;;;11.82;76.85;99821.56;5045308;28;20044;-68
2021/05/12 07:20:48;;;;;;;16.52;5.68;;;;;;;11.98;76.93;99841.84;5054038;28;20140;-70
2021/05/12 07:23:22;;;;;;;17.08;5.70;;;;;;;11.96;77.09;99833.09;5054550;28;20053;-78
2021/05/12 07:25:49;;;;;;;10.18;5.40;;;;;;;12.04;76.28;99844.09;5054779;28;20095;-72
2021/05/12 07:28:17;;;;;;;12.85;5.97;;;;;;;11.99;77.32;99826.66;5054476;28;20045;-71
2021/05/12 07:30:44;;;;;;;10.90;6.03;;;;;;;12.09;77.72;99828.59;5053676;28;20358;-75
2021/05/12 07:33:12;;;;;;;13.77;6.53;;;;;;;12.04;76.10;99833.41;5052904;28;20140;-71
2021/05/12 07:35:39;;;;;;;12.38;5.55;;;;;;;12.09;77.31;99833.94;5053417;28;20430;-69
2021/05/12 07:38:07;;;;;;;16.65;5.53;;;;;;;12.11;76.43;99820.47;5054494;28;20049;-67
2021/05/12 07:40:34;;;;;;;9.82;5.15;;;;;;;12.25;76.26;99838.16;5054661;28;20049;-69
2021/05/12 07:43:05;;;;;;;12.60;5.13;;;;;;;12.32;75.88;99835.91;5054480;28;20076;-68
2021/05/12 07:45:31;;;;;;;13.45;5.57;;;;;;;12.40;75.85;99836.19;5054455;28;20052;-68
2021/05/12 07:48:10;;;;;;;11.95;5.10;;;;;;;12.47;74.24;99841.91;5054338;28;20049;-72
2021/05/12 07:50:38;;;;;;;12.70;5.05;;;;;;;12.53;73.90;99837.94;5054799;28;20049;-71
2021/05/12 07:53:07;;;;;;;11.45;5.47;;;;;;;12.55;73.84;99836.88;5054510;28;20053;-71
2021/05/12 07:55:34;;;;;;;14.30;5.75;;;;;;;12.63;73.20;99845.19;5053617;28;20055;-70
2021/05/12 07:58:02;;;;;;;13.38;4.95;;;;;;;12.60;74.24;99834.69;5053643;28;20045;-71
2021/05/12 08:00:32;;;;;;;11.43;5.50;;;;;;;12.75;75.43;99834.53;5054574;28;20052;-75
2021/05/12 08:02:59;;;;;;;13.65;5.07;;;;;;;12.73;73.18;99836.44;5054479;28;20350;-73
2021/05/12 08:05:26;;;;;;;13.93;5.00;;;;;;;12.58;72.16;99833.13;5054610;28;20064;-73
2021/05/12 08:07:53;;;;;;;9.95;4.25;;;;;;;12.50;73.16;99842.53;5053319;28;20049;-71
2021/05/12 08:10:19;;;;;;;16.83;5.20;;;;;;;12.36;72.85;99843.59;5054688;28;20327;-75
2021/05/12 08:12:46;;;;;;;11.52;4.68;;;;;;;12.33;73.65;99840.28;5054921;28;20060;-69
2021/05/12 08:15:13;;;;;;;11.07;4.45;;;;;;;12.46;73.12;99842.91;5053481;28;20452;-70
2021/05/12 08:17:40;;;;;;;8.32;4.25;;;;;;;12.66;74.69;99830.72;5048959;28;20061;-73
2021/05/12 08:20:07;;;;;;;14.60;4.55;;;;;;;12.82;72.22;99830.41;5033155;28;20061;-68
2021/05/12 08:22:34;;;;;;;11.70;4.53;;;;;;;12.82;71.49;99830.41;5034788;28;20483;-70
2021/05/12 08:25:01;;;;;;;14.48;5.90;;;;;;;12.88;71.75;99819.22;5034775;28;20100;-72
2021/05/12 08:27:28;;;;;;;13.15;5.25;;;;;;;12.84;70.76;99823.09;5034706;28;20057;-75
2021/05/12 08:29:59;;;;;;;11.15;5.47;;;;;;;12.96;71.31;99817.78;5033406;28;20080;-70
2021/05/12 08:32:27;;;;;;;14.00;5.50;;;;;;;13.22;71.79;99825.63;5034299;28;20064;-69
2021/05/12 08:34:57;;;;;;;18.58;5.75;;;;;;;13.34;70.54;99826.50;5034281;28;20180;-70
2021/05/12 08:37:24;;;;;;;11.23;4.70;;;;;;;13.47;69.78;99838.00;5033413;28;20273;-69
2021/05/12 08:39:50;;;;;;;10.45;4.35;;;;;;;13.17;67.70;99818.81;5033188;28;20129;-71
2021/05/12 08:42:19;;;;;;;13.00;4.10;;;;;;;13.23;68.28;99822.00;5034361;28;20056;-73
2021/05/12 08:44:50;;;;;;;11.18;3.75;;;;;;;13.28;66.47;99823.31;5036020;28;20115;-72
2021/05/12 08:47:19;;;;;;;13.77;4.13;;;;;;;13.36;66.60;99816.50;5032979;28;20058;-70
2021/05/12 08:49:48;;;;;;;12.63;4.40;;;;;;;13.44;66.34;99820.31;5037712;28;20427;-71
2021/05/12 08:52:15;;;;;;;10.57;3.67;;;;;;;13.63;67.71;99808.16;5037627;28;20053;-71
2021/05/12 08:54:47;;;;;;;15.93;4.13;;;;;;;13.83;65.75;99803.88;5036240;28;20075;-75
2021/05/12 08:57:17;;;;;;;16.05;4.00;;;;;;;13.79;65.31;99809.59;5036678;28;20076;-74
2021/05/12 08:59:44;;;;;;;14.68;3.85;;;;;;;13.71;65.06;99827.16;5037308;28;20049;-71
2021/05/12 09:02:10;;;;;;;11.25;3.00;;;;;;;13.83;65.64;99811.03;5037481;28;20140;-75
2021/05/12 09:04:37;;;;;;;11.05;3.00;;;;;;;14.08;65.12;99811.75;5037595;28;20057;-72
2021/05/12 09:07:04;;;;;;;10.50;2.60;;;;;;;14.25;63.03;99813.91;5037706;28;20057;-71
2021/05/12 09:09:31;;;;;;;12.75;2.60;;;;;;;14.32;62.47;99800.00;5037234;28;20434;-72
2021/05/12 09:11:58;;;;;;;8.52;2.25;;;;;;;14.49;62.22;99790.53;5037113;28;20053;-68
2021/05/12 09:14:40;;;;;;;10.55;2.63;;;;;;;14.72;61.69;99802.03;5035261;28;20049;-75
2021/05/12 09:17:13;;;;;;;7.20;2.40;;;;;;;14.63;58.96;99789.34;5037595;28;20054;-71
2021/05/12 09:19:43;;;;;;;7.00;2.38;;;;;;;14.63;60.44;99813.53;5055824;28;20065;-71
2021/05/12 09:22:23;;;;;;;9.73;2.17;;;;;;;14.80;60.04;99815.69;5042933;28;20357;-71
2021/05/12 09:25:05;;;;;;;10.40;2.38;;;;;;;14.70;57.51;99820.09;5055222;28;20045;-71
2021/05/12 09:27:32;;;;;;;5.88;1.58;;;;;;;14.64;58.33;99810.72;5056294;28;20056;-70
2021/05/12 09:30:00;;;;;;;7.40;2.20;;;;;;;14.76;59.85;99814.22;5056115;28;20056;-74
2021/05/12 09:32:42;;;;;;;9.13;2.70;;;;;;;14.33;59.53;99812.44;5056663;28;20052;-74
2021/05/12 09:35:09;;;;;;;8.13;2.45;;;;;;;14.69;61.41;99801.41;5056280;28;20049;-68
2021/05/12 09:37:40;;;;;;;8.77;2.20;;;;;;;14.63;60.18;99806.34;5056809;28;20181;-71
2021/05/12 09:40:12;;;;;;;8.93;2.03;;;;;;;14.39;58.73;99811.94;5056727;28;20056;-70
2021/05/12 09:42:41;;;;;;;4.03;1.73;;;;;;;14.38;59.82;99808.38;5056863;28;20124;-70
2021/05/12 09:45:09;;;;;;;8.15;2.05;;;;;;;14.64;60.17;99793.75;5056700;28;20064;-73
2021/05/12 09:47:37;;;;;;;5.00;1.77;;;;;;;14.80;59.19;99796.03;5056411;28;20418;-70
2021/05/12 09:50:08;;;;;;;8.63;1.63;;;;;;;14.91;57.83;99795.97;5056818;28;20083;-73
2021/05/12 09:52:35;;;;;;;6.35;1.88;;;;;;;14.94;56.89;99793.00;5056326;28;20064;-71
2021/05/12 09:55:04;;;;;;;8.55;2.08;;;;;;;15.18;57.85;99791.03;5056404;28;20056;-71
2021/05/12 09:57:31;;;;;;;9.35;2.72;;;;;;;15.49;59.17;99782.97;5055937;28;20099;-74
2021/05/12 09:59:58;;;;;;;9.88;2.08;;;;;;;15.89;57.90;99792.91;5056240;28;20107;-74
2021/05/12 10:02:24;;;;;;;5.47;2.00;;;;;;;16.18;56.45;99785.06;5056095;28;20056;-72
2021/05/12 10:05:03;;;;;;;7.85;2.33;;;;;;;16.22;56.35;99778.38;5055846;28;20052;-70
2021/05/12 10:07:31;;;;;;;7.78;2.25;;;;;;;16.26;55.46;99782.50;5056122;28;20041;-71
2021/05/12 10:10:01;;;;;;;5.93;2.08;;;;;;;16.30;54.19;99778.56;5056016;28;20045;-70
2021/05/12 10:12:31;;;;;;;7.93;2.70;;;;;;;16.09;54.21;99763.38;5054705;28;20056;-72
2021/05/12 10:14:59;;;;;;;6.90;2.50;;;;;;;15.98;54.72;99772.41;5055905;28;20350;-72
2021/05/12 10:17:27;;;;;;;8.45;2.15;;;;;;;16.09;56.34;99776.81;5052268;28;20059;-70
2021/05/12 10:19:56;;;;;;;8.75;2.35;;;;;;;16.13;53.83;99770.16;5036108;28;20358;-71
2021/05/12 10:22:23;;;;;;;5.90;2.28;;;;;;;16.33;54.03;99778.25;5035969;28;20076;-71
2021/05/12 10:24:52;;;;;;;6.75;2.13;;;;;;;16.39;53.77;99760.66;5036028;28;20328;-73
2021/05/12 10:27:29;;;;;;;10.52;2.50;;;;;;;16.74;52.82;99761.09;5036139;28;20101;-74
2021/05/12 10:30:03;;;;;;;7.10;2.20;;;;;;;17.04;50.57;99749.28;5035718;28;20049;-73
2021/05/12 10:32:34;;;;;;;9.45;2.42;;;;;;;17.29;50.43;99743.38;5035979;28;20309;-70
2021/05/12 10:35:07;;;;;;;6.93;1.95;;;;;;;17.51;49.98;99745.72;5035668;28;20059;-72
2021/05/12 10:37:41;;;;;;;13.35;2.22;;;;;;;17.88;50.44;99740.41;5035275;28;20099;-71
2021/05/12 10:40:25;;;;;;;6.13;2.22;;;;;;;17.82;47.34;99727.50;5035717;28;20119;-70
2021/05/12 10:48:43;;;;;;;7.40;1.92;;;;;;;17.80;49.15;99735.75;5035676;28;20061;-71
2021/05/12 10:51:31;;;;;;;9.10;2.45;;;;;;;17.20;48.22;99737.03;5035447;28;20053;-71
2021/05/12 10:54:02;;;;;;;6.43;2.00;;;;;;;16.97;50.38;99735.53;5035047;28;20447;-71
2021/05/12 10:56:37;;;;;;;4.88;2.30;;;;;;;17.19;50.14;99735.34;5035356;28;20059;-72
2021/05/12 10:59:06;;;;;;;9.75;2.50;;;;;;;17.15;48.62;99733.94;5035705;28;20442;-69
2021/05/12 11:01:43;;;;;;;5.55;1.95;;;;;;;17.41;49.51;99728.72;5035334;28;20046;-72
2021/05/12 11:04:12;;;;;;;4.78;1.92;;;;;;;17.27;48.74;99732.75;5035170;28;20057;-73
2021/05/12 11:06:39;;;;;;;5.93;2.03;;;;;;;17.03;47.73;99734.13;5035694;28;20057;-71
2021/05/12 11:09:15;;;;;;;5.60;1.40;;;;;;;16.79;47.19;99730.00;5033311;28;20050;-72
2021/05/12 11:11:44;;;;;;;8.18;1.80;;;;;;;17.15;48.62;99732.09;5035104;28;20059;-76
2021/05/12 11:14:25;;;;;;;5.78;1.88;;;;;;;17.40;47.93;99724.31;5034963;28;20152;-69
2021/05/12 11:17:11;;;;;;;6.13;1.50;;;;;;;17.85;46.54;99716.41;5034481;28;20057;-69
2021/05/12 11:19:42;;;;;;;4.95;1.70;;;;;;;18.19;47.30;99721.16;5034992;28;20084;-69
2021/05/12 11:22:28;;;;;;;8.10;2.10;;;;;;;17.99;46.72;99713.19;5034787;28;20080;-71
2021/05/12 11:25:11;;;;;;;4.35;1.98;;;;;;;18.17;47.37;99715.94;5035069;28;20054;-68
2021/05/12 11:33:31;;;;;;;8.68;2.53;;;;;;;17.54;47.16;99716.75;5034581;28;20095;-73
2021/05/12 11:36:17;;;;;;;10.50;2.40;;;;;;;17.48;48.07;99704.69;5034621;28;20099;-73
2021/05/12 11:38:45;;;;;;;8.05;2.30;;;;;;;17.71;48.36;99707.81;5034671;28;20053;-71
2021/05/12 11:41:22;;;;;;;5.28;1.80;;;;;;;17.87;48.78;99706.31;5034741;28;20061;-69
2021/05/12 11:43:50;;;;;;;7.50;2.03;;;;;;;17.80;46.78;99705.22;5034027;28;20365;-69